CZFN/ZFN METAR and TAF weather

Enter ICAO airport designator
Station Type Date Time Source
CZFN METAR 2019/04/25 16:00 UTC NOAA

CZFN 251600Z 29008KT 230V300 20SM FEW015 BKN086 M05/M09 A3035 RMK ST2AC4 S0 AFT 16UTC / LAST STFD OBS/NEXT 261500Z / SLP288


Station Type Date Time Source
CZFN Decoded METAR 2019/04/25 16:00 UTC NOAA

Fort Norman Airport, Canada (CZFN) 64-55N 125-34W
Apr 25, 2019 - 12:00 PM EDT / 2019.04.25 1600 UTC
Wind: from the WNW (290 degrees) at 9 MPH (8 KT) (direction variable):0
Visibility: 20 mile(s):0
Sky conditions: mostly cloudy
Temperature: 23 F (-5 C)
Windchill: 14 F (-10 C):1
Dew Point: 15 F (-9 C)
Relative Humidity: 73%
Pressure (altimeter): 30.35 in. Hg (1027 hPa)
ob: CZFN 251600Z 29008KT 230V300 20SM FEW015 BKN086 M05/M09 A3035 RMK ST2AC4 S0 AFT 16UTC / LAST STFD OBS/NEXT 261500Z / SLP288
cycle: 16

Station Type Date Time Source
CZFN TAF UTC NOAA

Error!

Example: see airport list